»·PEaware :: AAL1228 KSAN-KLAS

AAL1228 :: KSAN-KLAS

FLIGHT INFORMATION

Flight Status: Arrived
Operator:
American Airlines
More flights by this operator :: More flights under this callsign
Pilot: Michael M. (12217)
Aircraft: PIPER PA-28 CHEROKEE ARCHER
(PA28)
More flights by this aircraft type
Origin: KSAN San Diego Intl-Lindbergh
United States
Destination: KLAS McCarran Intl
United States
More flights between these airports :: More routes between these airports
Route: +PADRZ1 CHKNN SEBBY YELAH MISEN KEPEC4
File this flight plan on PilotEdge
Remarks:
Altitude:
(Current/Filed)
29,000ft
Speed:
(Current/Filed)
310kts
Departed: 10-Aug-17 10:56 AM
Arrived: 10-Aug-17 11:49 AM
Distance/Time
Traveled:
223nm/0:53
Distance/Time
To Go:
Arrived

Flight Plot

Page will automatically refresh every two minutes.

Flight plan parsing failed; only flown route is shown


Map Options




Map Legend


Flown Route
Filed Route
Departure Airport
Arrival Airport
Navaid (VOR, NDB)
Fix

Horizontal Profiles

Position Reports

Time Latitude Longitude Heading Altitude Ground
Speed
10-Aug-17 10:06 32.734170 -117.201754 182 12ft 0kts
10-Aug-17 10:07 32.734170 -117.201754 182 12ft 0kts
10-Aug-17 10:08 32.734170 -117.201754 182 12ft 0kts
10-Aug-17 10:09 32.734170 -117.201754 182 12ft 0kts
10-Aug-17 10:10 32.734170 -117.201754 182 12ft 0kts
10-Aug-17 10:11 32.734170 -117.201754 182 12ft 0kts
10-Aug-17 10:12 32.734170 -117.201754 182 12ft 0kts
10-Aug-17 10:13 32.734170 -117.201754 182 12ft 0kts
10-Aug-17 10:14 32.734170 -117.201754 182 12ft 0kts
10-Aug-17 10:15 32.734170 -117.201754 182 12ft 0kts
10-Aug-17 10:23 32.734169 -117.201768 182 12ft 0kts
10-Aug-17 10:24 32.734279 -117.201763 182 17ft 0kts
10-Aug-17 10:25 32.734279 -117.201763 182 17ft 0kts
10-Aug-17 10:26 32.734279 -117.201763 182 17ft 0kts
10-Aug-17 10:27 32.734279 -117.201763 182 17ft 0kts
10-Aug-17 10:28 32.734279 -117.201763 182 17ft 0kts
10-Aug-17 10:29 32.734279 -117.201763 182 17ft 0kts
10-Aug-17 10:30 32.734279 -117.201763 182 17ft 0kts
10-Aug-17 10:31 32.734279 -117.201763 182 17ft 0kts
10-Aug-17 10:32 32.734279 -117.201763 182 17ft 0kts
10-Aug-17 10:33 32.734279 -117.201763 182 17ft 0kts
10-Aug-17 10:34 32.734279 -117.201763 182 17ft 0kts
10-Aug-17 10:35 32.734279 -117.201763 182 17ft 0kts
10-Aug-17 10:36 32.734279 -117.201763 182 17ft 0kts
10-Aug-17 10:37 32.734279 -117.201763 182 17ft 0kts
10-Aug-17 10:38 32.734279 -117.201763 182 17ft 0kts
10-Aug-17 10:39 32.734279 -117.201763 182 17ft 0kts
10-Aug-17 10:40 32.734279 -117.201763 182 17ft 0kts
10-Aug-17 10:41 32.734279 -117.201763 182 17ft 0kts
10-Aug-17 10:42 32.734279 -117.201763 182 17ft 0kts
10-Aug-17 10:43 32.734279 -117.201763 182 17ft 0kts
10-Aug-17 10:44 32.734279 -117.201763 182 17ft 0kts
10-Aug-17 10:45 32.734462 -117.201829 153 17ft 2kts
10-Aug-17 10:46 32.735014 -117.202099 158 17ft 1kts
10-Aug-17 10:47 32.735067 -117.202121 169 17ft 0kts
10-Aug-17 10:48 32.735067 -117.202121 169 17ft 0kts
10-Aug-17 10:49 32.735067 -117.202121 169 17ft 0kts
10-Aug-17 10:50 32.734837 -117.201892 113 17ft 0kts
10-Aug-17 10:51 32.734846 -117.200312 91 17ft 26kts
10-Aug-17 10:52 32.733136 -117.192422 101 20ft 22kts
10-Aug-17 10:53 32.731591 -117.185764 105 17ft 20kts
10-Aug-17 10:54 32.730324 -117.180565 105 17ft 17kts
10-Aug-17 10:55 32.729399 -117.178330 141 20ft 0kts
10-Aug-17 10:56 32.729399 -117.178330 141 20ft 0kts
10-Aug-17 10:57 32.729399 -117.178330 141 20ft 0kts
10-Aug-17 10:58 32.729399 -117.178330 141 20ft 0kts
10-Aug-17 10:59 32.731038 -117.179151 288 21ft 79kts
10-Aug-17 11:00 32.747822 -117.232843 307 2398ft 235kts
10-Aug-17 11:01 32.789180 -117.301781 302 5653ft 272kts
10-Aug-17 11:02 32.831320 -117.367708 305 9402ft 284kts
10-Aug-17 11:03 32.883701 -117.448935 304 12046ft 341kts
10-Aug-17 11:04 32.942094 -117.539636 304 14942ft 355kts
10-Aug-17 11:05 33.001394 -117.632181 304 14990ft 352kts
10-Aug-17 11:06 33.060526 -117.723782 310 14979ft 355kts
10-Aug-17 11:07 33.128770 -117.795467 316 14989ft 358kts
10-Aug-17 11:08 33.210148 -117.834378 5 14988ft 366kts
10-Aug-17 11:09 33.304479 -117.793018 4 14987ft 366kts
10-Aug-17 11:10 33.390962 -117.842048 309 15004ft 356kts
10-Aug-17 11:11 33.457193 -117.930620 308 15235ft 371kts
10-Aug-17 11:12 33.526879 -118.023968 308 18811ft 378kts
10-Aug-17 11:13 33.597253 -118.118535 307 21809ft 390kts
10-Aug-17 11:14 33.690141 -118.185747 352 24277ft 425kts
10-Aug-17 11:15 33.788675 -118.145125 42 26192ft 447kts
10-Aug-17 11:16 33.874065 -118.042112 46 28571ft 449kts
10-Aug-17 11:17 33.962682 -117.933329 45 29022ft 476kts
10-Aug-17 11:18 34.058044 -117.815980 45 29058ft 507kts
10-Aug-17 11:19 34.146323 -117.694556 50 29028ft 506kts
10-Aug-17 11:20 34.235514 -117.563713 51 29010ft 506kts
10-Aug-17 11:21 34.324866 -117.432510 51 29047ft 507kts
10-Aug-17 11:22 34.411606 -117.304609 51 29069ft 508kts
10-Aug-17 11:23 34.500428 -117.173077 51 29060ft 507kts
10-Aug-17 11:24 34.589156 -117.041371 51 29068ft 507kts
10-Aug-17 11:25 34.677638 -116.909369 51 29040ft 506kts
10-Aug-17 11:26 34.766028 -116.777057 51 29030ft 505kts
10-Aug-17 11:27 34.855410 -116.646028 42 29006ft 506kts
10-Aug-17 11:28 34.964224 -116.538000 37 29040ft 509kts
10-Aug-17 11:30 35.075070 -116.430368 37 29062ft 509kts
10-Aug-17 11:31 35.166698 -116.323356 45 27864ft 455kts
10-Aug-17 11:31 35.238772 -116.233019 45 26167ft 451kts
10-Aug-17 11:32 35.326665 -116.122462 46 24083ft 443kts
10-Aug-17 11:34 35.418040 -116.007101 46 24067ft 399kts
10-Aug-17 11:35 35.496872 -115.907311 46 21836ft 415kts
10-Aug-17 11:36 35.578125 -115.804116 46 18017ft 432kts
10-Aug-17 11:37 35.661431 -115.697953 46 13950ft 435kts
10-Aug-17 11:38 35.739709 -115.600599 34 13001ft 359kts
10-Aug-17 11:38 35.812734 -115.576057 4 13060ft 325kts
10-Aug-17 11:39 35.903214 -115.567885 1 13054ft 327kts
10-Aug-17 11:40 35.980331 -115.519774 62 13052ft 328kts
10-Aug-17 11:41 36.012603 -115.415123 71 12151ft 321kts
10-Aug-17 11:42 36.040165 -115.323088 72 11234ft 266kts
10-Aug-17 11:43 36.044848 -115.242011 101 9841ft 227kts
10-Aug-17 11:44 36.034152 -115.169152 121 8435ft 206kts
10-Aug-17 11:45 35.990870 -115.136206 196 7106ft 209kts
10-Aug-17 11:46 35.975859 -115.194585 308 5801ft 201kts
10-Aug-17 11:47 36.023234 -115.229181 332 5063ft 198kts
10-Aug-17 11:48 36.074410 -115.260021 358 6203ft 224kts
10-Aug-17 11:49 36.077217 -115.215594 175 5881ft 203kts
10-Aug-17 11:50 36.053028 -115.275294 267 5103ft 230kts
10-Aug-17 11:51 36.088895 -115.296341 84 4469ft 208kts
10-Aug-17 11:52 36.087047 -115.246952 13 2415ft 18kts

Navigation Log

Ident Type
Flight plan parsing failed, navigation log unavailable